sensor_id;sensor_type;location;lat;lon;timestamp;pressure;altitude;pressure_sealevel;temperature;humidity
68941;BME280;55982;51.476;7.552;2023-06-14T00:01:22;99586.25;;;16.72;100.00
68941;BME280;55982;51.476;7.552;2023-06-14T00:03:39;99594.00;;;16.75;100.00
68941;BME280;55982;51.476;7.552;2023-06-14T00:06:04;99596.25;;;16.67;100.00
68941;BME280;55982;51.476;7.552;2023-06-14T00:08:30;99596.38;;;16.65;100.00
68941;BME280;55982;51.476;7.552;2023-06-14T00:10:55;99601.16;;;16.59;100.00
68941;BME280;55982;51.476;7.552;2023-06-14T00:13:21;99599.66;;;16.55;100.00
68941;BME280;55982;51.476;7.552;2023-06-14T00:15:46;99602.91;;;16.44;100.00
68941;BME280;55982;51.476;7.552;2023-06-14T00:18:13;99606.38;;;16.44;100.00
68941;BME280;55982;51.476;7.552;2023-06-14T00:20:40;99612.81;;;16.40;100.00
68941;BME280;55982;51.476;7.552;2023-06-14T00:23:07;99603.56;;;16.33;100.00
68941;BME280;55982;51.476;7.552;2023-06-14T00:25:32;99612.03;;;16.24;100.00
68941;BME280;55982;51.476;7.552;2023-06-14T00:27:58;99610.81;;;16.30;100.00
68941;BME280;55982;51.476;7.552;2023-06-14T00:30:24;99605.22;;;16.20;100.00
68941;BME280;55982;51.476;7.552;2023-06-14T00:32:50;99616.34;;;16.11;100.00
68941;BME280;55982;51.476;7.552;2023-06-14T00:35:16;99616.66;;;16.21;100.00
68941;BME280;55982;51.476;7.552;2023-06-14T00:37:42;99614.63;;;16.10;100.00
68941;BME280;55982;51.476;7.552;2023-06-14T00:40:08;99614.28;;;16.16;100.00
68941;BME280;55982;51.476;7.552;2023-06-14T00:42:33;99614.53;;;16.12;100.00
68941;BME280;55982;51.476;7.552;2023-06-14T00:44:59;99617.72;;;16.03;100.00
68941;BME280;55982;51.476;7.552;2023-06-14T00:47:25;99606.78;;;15.79;100.00
68941;BME280;55982;51.476;7.552;2023-06-14T00:49:53;99615.44;;;15.67;100.00
68941;BME280;55982;51.476;7.552;2023-06-14T00:52:19;99609.44;;;15.79;100.00
68941;BME280;55982;51.476;7.552;2023-06-14T00:54:45;99609.97;;;15.70;100.00
68941;BME280;55982;51.476;7.552;2023-06-14T00:57:12;99612.69;;;15.69;100.00
68941;BME280;55982;51.476;7.552;2023-06-14T00:59:42;99615.09;;;15.42;100.00
68941;BME280;55982;51.476;7.552;2023-06-14T01:02:07;99629.44;;;15.36;100.00
68941;BME280;55982;51.476;7.552;2023-06-14T01:04:33;99632.22;;;15.18;100.00
68941;BME280;55982;51.476;7.552;2023-06-14T01:12:24;99641.16;;;15.00;100.00
68941;BME280;55982;51.476;7.552;2023-06-14T01:14:55;99642.50;;;15.07;100.00
68941;BME280;55982;51.476;7.552;2023-06-14T01:17:22;99646.88;;;15.08;100.00
68941;BME280;55982;51.476;7.552;2023-06-14T01:19:48;99644.13;;;15.09;100.00
68941;BME280;55982;51.476;7.552;2023-06-14T01:22:14;99637.56;;;15.01;100.00
68941;BME280;55982;51.476;7.552;2023-06-14T01:24:39;99642.56;;;14.90;100.00
68941;BME280;55982;51.476;7.552;2023-06-14T01:27:10;99642.72;;;14.71;100.00
68941;BME280;55982;51.476;7.552;2023-06-14T01:29:37;99637.22;;;14.58;100.00
68941;BME280;55982;51.476;7.552;2023-06-14T01:32:04;99640.03;;;14.38;100.00
68941;BME280;55982;51.476;7.552;2023-06-14T01:34:33;99630.09;;;14.26;100.00
68941;BME280;55982;51.476;7.552;2023-06-14T01:37:00;99638.00;;;14.26;100.00
68941;BME280;55982;51.476;7.552;2023-06-14T01:39:26;99635.69;;;14.20;100.00
68941;BME280;55982;51.476;7.552;2023-06-14T01:41:53;99635.53;;;14.23;100.00
68941;BME280;55982;51.476;7.552;2023-06-14T01:44:22;99637.69;;;14.15;100.00
68941;BME280;55982;51.476;7.552;2023-06-14T01:46:48;99638.31;;;14.20;100.00
68941;BME280;55982;51.476;7.552;2023-06-14T01:49:14;99633.47;;;14.30;100.00
68941;BME280;55982;51.476;7.552;2023-06-14T01:51:40;99637.22;;;14.24;100.00
68941;BME280;55982;51.476;7.552;2023-06-14T01:54:05;99648.53;;;14.09;100.00
68941;BME280;55982;51.476;7.552;2023-06-14T01:56:31;99640.03;;;14.04;100.00
68941;BME280;55982;51.476;7.552;2023-06-14T01:58:59;99640.34;;;14.15;100.00
68941;BME280;55982;51.476;7.552;2023-06-14T02:01:25;99631.34;;;14.02;100.00
68941;BME280;55982;51.476;7.552;2023-06-14T02:03:52;99634.44;;;14.10;100.00
68941;BME280;55982;51.476;7.552;2023-06-14T02:06:21;99638.94;;;14.25;100.00
68941;BME280;55982;51.476;7.552;2023-06-14T02:08:47;99634.00;;;14.19;100.00
68941;BME280;55982;51.476;7.552;2023-06-14T02:11:12;99631.19;;;14.05;100.00
68941;BME280;55982;51.476;7.552;2023-06-14T02:13:38;99636.63;;;14.02;100.00
68941;BME280;55982;51.476;7.552;2023-06-14T02:16:10;99629.63;;;14.01;100.00
68941;BME280;55982;51.476;7.552;2023-06-14T02:18:36;99642.19;;;13.96;100.00
68941;BME280;55982;51.476;7.552;2023-06-14T02:21:01;99631.66;;;13.96;100.00
68941;BME280;55982;51.476;7.552;2023-06-14T02:23:27;99629.94;;;13.95;100.00
68941;BME280;55982;51.476;7.552;2023-06-14T02:25:53;99641.25;;;13.97;100.00
68941;BME280;55982;51.476;7.552;2023-06-14T02:28:19;99635.06;;;13.98;100.00
68941;BME280;55982;51.476;7.552;2023-06-14T02:30:44;99630.88;;;13.94;100.00
68941;BME280;55982;51.476;7.552;2023-06-14T02:33:15;99635.50;;;13.89;100.00
68941;BME280;55982;51.476;7.552;2023-06-14T02:35:41;99642.78;;;13.84;100.00
68941;BME280;55982;51.476;7.552;2023-06-14T02:38:06;99644.91;;;13.76;100.00
68941;BME280;55982;51.476;7.552;2023-06-14T02:40:34;99638.50;;;13.82;100.00
68941;BME280;55982;51.476;7.552;2023-06-14T02:43:00;99649.59;;;13.88;100.00
68941;BME280;55982;51.476;7.552;2023-06-14T02:45:29;99644.03;;;13.94;100.00
68941;BME280;55982;51.476;7.552;2023-06-14T02:47:55;99644.47;;;13.85;100.00
68941;BME280;55982;51.476;7.552;2023-06-14T02:50:24;99642.22;;;13.77;100.00
68941;BME280;55982;51.476;7.552;2023-06-14T02:52:49;99644.47;;;13.85;100.00
68941;BME280;55982;51.476;7.552;2023-06-14T02:55:17;99641.38;;;13.77;100.00
68941;BME280;55982;51.476;7.552;2023-06-14T02:57:43;99636.44;;;13.88;100.00
68941;BME280;55982;51.476;7.552;2023-06-14T03:00:09;99638.91;;;13.91;100.00
68941;BME280;55982;51.476;7.552;2023-06-14T03:02:38;99647.56;;;13.93;100.00
68941;BME280;55982;51.476;7.552;2023-06-14T03:05:05;99653.84;;;13.91;100.00
68941;BME280;55982;51.476;7.552;2023-06-14T03:07:32;99657.00;;;13.80;100.00
68941;BME280;55982;51.476;7.552;2023-06-14T03:09:58;99662.06;;;13.66;100.00
68941;BME280;55982;51.476;7.552;2023-06-14T03:12:26;99668.09;;;13.68;100.00
68941;BME280;55982;51.476;7.552;2023-06-14T03:14:52;99668.41;;;13.62;100.00
68941;BME280;55982;51.476;7.552;2023-06-14T03:17:21;99673.06;;;13.74;100.00
68941;BME280;55982;51.476;7.552;2023-06-14T03:19:47;99674.78;;;13.75;100.00
68941;BME280;55982;51.476;7.552;2023-06-14T03:22:16;99674.78;;;13.75;100.00
68941;BME280;55982;51.476;7.552;2023-06-14T03:24:44;99671.50;;;13.70;100.00
68941;BME280;55982;51.476;7.552;2023-06-14T03:27:10;99681.03;;;13.72;100.00
68941;BME280;55982;51.476;7.552;2023-06-14T03:29:35;99681.59;;;13.79;100.00
68941;BME280;55982;51.476;7.552;2023-06-14T03:32:02;99687.31;;;13.87;100.00
68941;BME280;55982;51.476;7.552;2023-06-14T03:34:28;99688.75;;;13.94;100.00
68941;BME280;55982;51.476;7.552;2023-06-14T03:36:53;99690.50;;;13.94;100.00
68941;BME280;55982;51.476;7.552;2023-06-14T03:39:19;99695.94;;;13.91;100.00
68941;BME280;55982;51.476;7.552;2023-06-14T03:41:45;99697.78;;;13.89;100.00
68941;BME280;55982;51.476;7.552;2023-06-14T03:44:10;99699.75;;;14.02;100.00
68941;BME280;55982;51.476;7.552;2023-06-14T03:46:35;99700.75;;;14.17;100.00
68941;BME280;55982;51.476;7.552;2023-06-14T03:49:01;99703.56;;;14.14;100.00
68941;BME280;55982;51.476;7.552;2023-06-14T03:51:28;99700.69;;;14.18;100.00
68941;BME280;55982;51.476;7.552;2023-06-14T03:53:54;99709.94;;;14.08;100.00
68941;BME280;55982;51.476;7.552;2023-06-14T03:56:21;99713.69;;;14.04;100.00
68941;BME280;55982;51.476;7.552;2023-06-14T03:58:46;99715.94;;;13.93;100.00
68941;BME280;55982;51.476;7.552;2023-06-14T04:01:12;99720.25;;;13.77;100.00
68941;BME280;55982;51.476;7.552;2023-06-14T04:03:37;99723.44;;;13.84;100.00
68941;BME280;55982;51.476;7.552;2023-06-14T04:06:04;99725.94;;;13.87;100.00
68941;BME280;55982;51.476;7.552;2023-06-14T04:08:30;99725.66;;;13.93;100.00
68941;BME280;55982;51.476;7.552;2023-06-14T04:10:56;99726.19;;;13.99;100.00
68941;BME280;55982;51.476;7.552;2023-06-14T04:13:21;99733.56;;;13.91;100.00
68941;BME280;55982;51.476;7.552;2023-06-14T04:15:46;99738.88;;;14.08;100.00
68941;BME280;55982;51.476;7.552;2023-06-14T04:18:13;99742.47;;;14.24;100.00
68941;BME280;55982;51.476;7.552;2023-06-14T04:20:38;99739.88;;;14.41;100.00
68941;BME280;55982;51.476;7.552;2023-06-14T04:23:15;99751.66;;;14.51;100.00
68941;BME280;55982;51.476;7.552;2023-06-14T04:25:43;99751.19;;;14.60;100.00
68941;BME280;55982;51.476;7.552;2023-06-14T04:28:14;99747.19;;;14.71;100.00
68941;BME280;55982;51.476;7.552;2023-06-14T04:30:41;99758.25;;;14.77;100.00
68941;BME280;55982;51.476;7.552;2023-06-14T04:33:07;99748.25;;;14.84;100.00
68941;BME280;55982;51.476;7.552;2023-06-14T04:35:32;99755.84;;;14.90;100.00
68941;BME280;55982;51.476;7.552;2023-06-14T04:37:58;99747.44;;;14.99;100.00
68941;BME280;55982;51.476;7.552;2023-06-14T04:40:24;99753.03;;;15.10;100.00
68941;BME280;55982;51.476;7.552;2023-06-14T04:42:50;99758.03;;;15.14;100.00
68941;BME280;55982;51.476;7.552;2023-06-14T04:45:16;99753.41;;;15.19;100.00
68941;BME280;55982;51.476;7.552;2023-06-14T04:47:44;99756.72;;;15.23;100.00
68941;BME280;55982;51.476;7.552;2023-06-14T04:50:11;99759.44;;;15.21;100.00
68941;BME280;55982;51.476;7.552;2023-06-14T04:52:38;99764.34;;;15.27;100.00
68941;BME280;55982;51.476;7.552;2023-06-14T04:55:04;99770.00;;;15.37;100.00
68941;BME280;55982;51.476;7.552;2023-06-14T04:57:31;99778.38;;;15.45;100.00
68941;BME280;55982;51.476;7.552;2023-06-14T04:59:56;99775.84;;;15.43;100.00
68941;BME280;55982;51.476;7.552;2023-06-14T05:02:23;99776.38;;;15.50;100.00
68941;BME280;55982;51.476;7.552;2023-06-14T05:04:49;99770.72;;;15.56;100.00
68941;BME280;55982;51.476;7.552;2023-06-14T05:07:15;99778.25;;;15.64;100.00
68941;BME280;55982;51.476;7.552;2023-06-14T05:09:45;99780.47;;;15.71;100.00
68941;BME280;55982;51.476;7.552;2023-06-14T05:12:11;99772.97;;;15.79;100.00
68941;BME280;55982;51.476;7.552;2023-06-14T05:14:37;99775.13;;;15.88;100.00
68941;BME280;55982;51.476;7.552;2023-06-14T05:17:06;99778.44;;;15.92;100.00
68941;BME280;55982;51.476;7.552;2023-06-14T05:19:31;99785.59;;;16.05;100.00
68941;BME280;55982;51.476;7.552;2023-06-14T05:21:57;99783.38;;;16.13;100.00
68941;BME280;55982;51.476;7.552;2023-06-14T05:24:25;99790.94;;;16.19;100.00
68941;BME280;55982;51.476;7.552;2023-06-14T05:26:53;99779.97;;;16.27;100.00
68941;BME280;55982;51.476;7.552;2023-06-14T05:29:19;99782.38;;;16.45;100.00
68941;BME280;55982;51.476;7.552;2023-06-14T05:31:44;99793.19;;;16.41;100.00
68941;BME280;55982;51.476;7.552;2023-06-14T05:34:10;99787.44;;;16.50;100.00
68941;BME280;55982;51.476;7.552;2023-06-14T05:36:35;99791.44;;;16.57;100.00
68941;BME280;55982;51.476;7.552;2023-06-14T05:39:02;99785.34;;;16.71;100.00
68941;BME280;55982;51.476;7.552;2023-06-14T05:41:28;99782.59;;;16.72;100.00
68941;BME280;55982;51.476;7.552;2023-06-14T05:43:55;99784.44;;;16.86;100.00
68941;BME280;55982;51.476;7.552;2023-06-14T05:46:21;99791.66;;;16.98;100.00
68941;BME280;55982;51.476;7.552;2023-06-14T05:48:54;99787.13;;;17.14;100.00
68941;BME280;55982;51.476;7.552;2023-06-14T05:51:20;99784.59;;;17.26;100.00
68941;BME280;55982;51.476;7.552;2023-06-14T05:53:46;99789.03;;;17.26;100.00
68941;BME280;55982;51.476;7.552;2023-06-14T05:56:12;99798.09;;;17.36;100.00
68941;BME280;55982;51.476;7.552;2023-06-14T05:58:37;99797.56;;;17.59;100.00
68941;BME280;55982;51.476;7.552;2023-06-14T06:01:03;99791.91;;;17.65;100.00
68941;BME280;55982;51.476;7.552;2023-06-14T06:03:28;99797.75;;;17.84;100.00
68941;BME280;55982;51.476;7.552;2023-06-14T06:05:59;99800.50;;;17.69;100.00
68941;BME280;55982;51.476;7.552;2023-06-14T06:08:24;99802.25;;;17.96;100.00
68941;BME280;55982;51.476;7.552;2023-06-14T06:10:50;99802.94;;;17.72;100.00
68941;BME280;55982;51.476;7.552;2023-06-14T06:13:15;99802.50;;;17.65;100.00
68941;BME280;55982;51.476;7.552;2023-06-14T06:15:41;99805.31;;;17.76;100.00
68941;BME280;55982;51.476;7.552;2023-06-14T06:18:06;99803.22;;;17.95;100.00
68941;BME280;55982;51.476;7.552;2023-06-14T06:20:31;99812.81;;;17.96;100.00
68941;BME280;55982;51.476;7.552;2023-06-14T06:23:00;99801.41;;;17.96;100.00
68941;BME280;55982;51.476;7.552;2023-06-14T06:25:26;99801.31;;;17.97;100.00
68941;BME280;55982;51.476;7.552;2023-06-14T06:27:53;99805.28;;;18.31;100.00
68941;BME280;55982;51.476;7.552;2023-06-14T06:30:19;99803.03;;;18.25;100.00
68941;BME280;55982;51.476;7.552;2023-06-14T06:32:44;99805.38;;;18.44;100.00
68941;BME280;55982;51.476;7.552;2023-06-14T06:35:11;99816.59;;;18.74;100.00
68941;BME280;55982;51.476;7.552;2023-06-14T06:37:37;99819.34;;;18.72;100.00
68941;BME280;55982;51.476;7.552;2023-06-14T06:40:02;99819.03;;;19.29;100.00
68941;BME280;55982;51.476;7.552;2023-06-14T06:42:31;99816.34;;;19.16;100.00
68941;BME280;55982;51.476;7.552;2023-06-14T06:44:56;99823.94;;;19.47;100.00
68941;BME280;55982;51.476;7.552;2023-06-14T06:47:22;99829.19;;;19.97;100.00
68941;BME280;55982;51.476;7.552;2023-06-14T06:49:47;99834.28;;;20.00;100.00
68941;BME280;55982;51.476;7.552;2023-06-14T06:52:13;99834.75;;;19.69;99.01
68941;BME280;55982;51.476;7.552;2023-06-14T06:54:38;99826.59;;;19.47;100.00
68941;BME280;55982;51.476;7.552;2023-06-14T06:57:04;99841.13;;;19.79;100.00
68941;BME280;55982;51.476;7.552;2023-06-14T06:59:31;99836.16;;;20.24;100.00
68941;BME280;55982;51.476;7.552;2023-06-14T07:01:56;99837.00;;;20.12;100.00
68941;BME280;55982;51.476;7.552;2023-06-14T07:04:22;99843.56;;;19.82;100.00
68941;BME280;55982;51.476;7.552;2023-06-14T07:06:47;99844.94;;;20.37;95.68
68941;BME280;55982;51.476;7.552;2023-06-14T07:09:12;99851.41;;;20.45;99.16
68941;BME280;55982;51.476;7.552;2023-06-14T07:11:40;99848.53;;;20.72;91.30
68941;BME280;55982;51.476;7.552;2023-06-14T07:14:05;99855.94;;;20.20;87.66
68941;BME280;55982;51.476;7.552;2023-06-14T07:16:31;99850.63;;;20.32;91.59
68941;BME280;55982;51.476;7.552;2023-06-14T07:18:57;99862.94;;;20.33;93.93
68941;BME280;55982;51.476;7.552;2023-06-14T07:21:22;99857.44;;;20.11;97.75
68941;BME280;55982;51.476;7.552;2023-06-14T07:23:47;99863.53;;;20.37;92.42
68941;BME280;55982;51.476;7.552;2023-06-14T07:26:13;99865.06;;;20.28;98.30
68941;BME280;55982;51.476;7.552;2023-06-14T07:28:38;99858.50;;;20.08;98.10
68941;BME280;55982;51.476;7.552;2023-06-14T07:31:03;99856.19;;;19.79;97.44
68941;BME280;55982;51.476;7.552;2023-06-14T07:33:29;99858.75;;;19.80;100.00
68941;BME280;55982;51.476;7.552;2023-06-14T07:35:54;99863.22;;;19.55;95.52
68941;BME280;55982;51.476;7.552;2023-06-14T07:38:20;99865.06;;;20.16;90.88
68941;BME280;55982;51.476;7.552;2023-06-14T07:40:45;99860.69;;;19.78;90.89
68941;BME280;55982;51.476;7.552;2023-06-14T07:43:11;99868.06;;;20.24;94.44
68941;BME280;55982;51.476;7.552;2023-06-14T07:45:37;99865.25;;;20.38;95.58
68941;BME280;55982;51.476;7.552;2023-06-14T07:48:02;99868.03;;;20.36;85.39
68941;BME280;55982;51.476;7.552;2023-06-14T07:50:28;99866.47;;;20.57;86.49
68941;BME280;55982;51.476;7.552;2023-06-14T07:52:54;99866.63;;;20.67;84.70
68941;BME280;55982;51.476;7.552;2023-06-14T07:55:19;99871.31;;;21.45;80.41
68941;BME280;55982;51.476;7.552;2023-06-14T07:57:44;99866.88;;;21.11;76.51
68941;BME280;55982;51.476;7.552;2023-06-14T08:00:10;99860.13;;;21.86;74.54
68941;BME280;55982;51.476;7.552;2023-06-14T08:02:43;99875.09;;;21.76;74.99
68941;BME280;55982;51.476;7.552;2023-06-14T08:05:10;99876.56;;;21.23;70.56
68941;BME280;55982;51.476;7.552;2023-06-14T08:07:36;99853.13;;;21.28;74.06
68941;BME280;55982;51.476;7.552;2023-06-14T08:10:02;99864.44;;;21.19;73.88
68941;BME280;55982;51.476;7.552;2023-06-14T08:12:27;99866.66;;;21.36;75.20
68941;BME280;55982;51.476;7.552;2023-06-14T08:14:52;99830.91;;;21.73;65.25
68941;BME280;55982;51.476;7.552;2023-06-14T08:17:18;99863.41;;;22.01;67.92
68941;BME280;55982;51.476;7.552;2023-06-14T08:19:43;99865.53;;;22.29;66.17
68941;BME280;55982;51.476;7.552;2023-06-14T08:22:08;99867.91;;;22.54;63.80
68941;BME280;55982;51.476;7.552;2023-06-14T08:24:36;99854.88;;;23.14;61.70
68941;BME280;55982;51.476;7.552;2023-06-14T08:27:02;99874.41;;;21.28;64.17
68941;BME280;55982;51.476;7.552;2023-06-14T08:29:27;99877.72;;;21.08;61.22
68941;BME280;55982;51.476;7.552;2023-06-14T08:31:54;99868.34;;;22.16;62.31
68941;BME280;55982;51.476;7.552;2023-06-14T08:34:20;99872.56;;;20.70;63.18
68941;BME280;55982;51.476;7.552;2023-06-14T08:36:45;99866.25;;;21.64;65.20
68941;BME280;55982;51.476;7.552;2023-06-14T08:39:11;99862.63;;;22.21;63.12
68941;BME280;55982;51.476;7.552;2023-06-14T08:41:37;99870.38;;;21.79;67.10
68941;BME280;55982;51.476;7.552;2023-06-14T08:44:02;99864.84;;;21.82;62.69
68941;BME280;55982;51.476;7.552;2023-06-14T08:46:32;99853.72;;;22.11;59.34
68941;BME280;55982;51.476;7.552;2023-06-14T08:48:59;99861.34;;;21.36;61.51
68941;BME280;55982;51.476;7.552;2023-06-14T08:51:25;99862.88;;;22.29;60.87
68941;BME280;55982;51.476;7.552;2023-06-14T08:53:54;99863.38;;;23.40;60.77
68941;BME280;55982;51.476;7.552;2023-06-14T08:56:25;99871.72;;;23.46;58.67
68941;BME280;55982;51.476;7.552;2023-06-14T08:58:51;99876.63;;;22.67;57.82
68941;BME280;55982;51.476;7.552;2023-06-14T09:01:17;99853.88;;;22.52;58.63
68941;BME280;55982;51.476;7.552;2023-06-14T09:03:44;99871.81;;;22.50;59.55
68941;BME280;55982;51.476;7.552;2023-06-14T09:06:10;99862.22;;;23.01;58.26
68941;BME280;55982;51.476;7.552;2023-06-14T09:08:42;99865.53;;;22.40;59.03
68941;BME280;55982;51.476;7.552;2023-06-14T09:11:12;99874.06;;;22.01;60.22
68941;BME280;55982;51.476;7.552;2023-06-14T09:13:41;99866.88;;;22.88;60.06
68941;BME280;55982;51.476;7.552;2023-06-14T09:16:07;99867.56;;;23.01;60.19
68941;BME280;55982;51.476;7.552;2023-06-14T09:18:39;99868.81;;;22.86;60.96
68941;BME280;55982;51.476;7.552;2023-06-14T09:21:08;99874.50;;;22.61;68.23
68941;BME280;55982;51.476;7.552;2023-06-14T09:23:51;99874.91;;;23.40;64.57
68941;BME280;55982;51.476;7.552;2023-06-14T09:26:18;99882.16;;;24.40;60.33
68941;BME280;55982;51.476;7.552;2023-06-14T09:28:49;99877.22;;;25.13;57.72
68941;BME280;55982;51.476;7.552;2023-06-14T09:31:20;99880.31;;;24.80;63.51
68941;BME280;55982;51.476;7.552;2023-06-14T09:33:47;99878.28;;;24.14;59.56
68941;BME280;55982;51.476;7.552;2023-06-14T09:38:55;99885.69;;;22.87;62.12
68941;BME280;55982;51.476;7.552;2023-06-14T09:41:33;99877.78;;;23.48;58.07
68941;BME280;55982;51.476;7.552;2023-06-14T09:44:00;99884.47;;;23.11;57.39
68941;BME280;55982;51.476;7.552;2023-06-14T09:46:27;99867.22;;;23.26;58.24
68941;BME280;55982;51.476;7.552;2023-06-14T09:48:52;99881.28;;;23.70;60.58
68941;BME280;55982;51.476;7.552;2023-06-14T09:51:18;99885.34;;;23.43;60.25
68941;BME280;55982;51.476;7.552;2023-06-14T09:53:46;99884.03;;;23.58;60.35
68941;BME280;55982;51.476;7.552;2023-06-14T09:56:16;99886.88;;;23.87;62.66
68941;BME280;55982;51.476;7.552;2023-06-14T09:58:46;99883.72;;;23.20;57.91
68941;BME280;55982;51.476;7.552;2023-06-14T10:01:13;99866.56;;;23.54;58.46
68941;BME280;55982;51.476;7.552;2023-06-14T10:03:39;99894.41;;;23.20;58.53
68941;BME280;55982;51.476;7.552;2023-06-14T10:06:05;99892.06;;;22.52;61.76
68941;BME280;55982;51.476;7.552;2023-06-14T10:08:35;99884.31;;;22.38;58.81
68941;BME280;55982;51.476;7.552;2023-06-14T10:11:02;99891.16;;;23.79;57.85
68941;BME280;55982;51.476;7.552;2023-06-14T10:13:31;99895.22;;;23.52;57.46
68941;BME280;55982;51.476;7.552;2023-06-14T10:16:16;99889.50;;;23.78;58.64
68941;BME280;55982;51.476;7.552;2023-06-14T10:18:52;99901.38;;;24.64;58.01
68941;BME280;55982;51.476;7.552;2023-06-14T10:24:40;99885.47;;;23.10;57.76
68941;BME280;55982;51.476;7.552;2023-06-14T10:27:07;99888.47;;;23.48;60.49
68941;BME280;55982;51.476;7.552;2023-06-14T10:32:24;99878.97;;;23.86;58.77
68941;BME280;55982;51.476;7.552;2023-06-14T10:34:57;99888.13;;;23.63;58.24
68941;BME280;55982;51.476;7.552;2023-06-14T10:37:22;99890.69;;;23.43;57.39
68941;BME280;55982;51.476;7.552;2023-06-14T10:39:50;99888.09;;;24.04;57.27
68941;BME280;55982;51.476;7.552;2023-06-14T10:42:16;99889.09;;;23.61;56.53
68941;BME280;55982;51.476;7.552;2023-06-14T10:49:54;99884.69;;;24.02;55.90
68941;BME280;55982;51.476;7.552;2023-06-14T10:52:27;99884.19;;;24.57;56.51
68941;BME280;55982;51.476;7.552;2023-06-14T10:57:29;99885.50;;;24.23;57.51
68941;BME280;55982;51.476;7.552;2023-06-14T10:59:56;99869.25;;;23.54;56.06
68941;BME280;55982;51.476;7.552;2023-06-14T11:05:29;99872.28;;;23.71;56.07
68941;BME280;55982;51.476;7.552;2023-06-14T11:08:39;99871.25;;;24.62;57.93
68941;BME280;55982;51.476;7.552;2023-06-14T11:10:59;99878.41;;;24.52;58.39
68941;BME280;55982;51.476;7.552;2023-06-14T11:13:26;99876.84;;;25.93;58.53
68941;BME280;55982;51.476;7.552;2023-06-14T11:15:52;99874.09;;;25.66;56.61
68941;BME280;55982;51.476;7.552;2023-06-14T11:18:22;99869.88;;;25.54;52.90
68941;BME280;55982;51.476;7.552;2023-06-14T11:20:53;99865.38;;;25.25;55.41
68941;BME280;55982;51.476;7.552;2023-06-14T11:23:18;99875.94;;;26.11;55.15
68941;BME280;55982;51.476;7.552;2023-06-14T11:25:50;99888.13;;;26.60;52.82
68941;BME280;55982;51.476;7.552;2023-06-14T11:28:15;99872.41;;;25.26;51.63
68941;BME280;55982;51.476;7.552;2023-06-14T11:30:40;99868.19;;;23.97;55.86
68941;BME280;55982;51.476;7.552;2023-06-14T11:33:09;99877.22;;;24.85;56.48
68941;BME280;55982;51.476;7.552;2023-06-14T11:35:35;99870.91;;;24.95;54.83
68941;BME280;55982;51.476;7.552;2023-06-14T11:38:01;99893.44;;;25.12;55.30
68941;BME280;55982;51.476;7.552;2023-06-14T11:40:27;99875.97;;;25.08;56.08
68941;BME280;55982;51.476;7.552;2023-06-14T11:43:00;99870.44;;;25.28;53.06
68941;BME280;55982;51.476;7.552;2023-06-14T11:45:26;99864.53;;;25.54;55.17
68941;BME280;55982;51.476;7.552;2023-06-14T11:47:54;99862.22;;;25.78;53.97
68941;BME280;55982;51.476;7.552;2023-06-14T11:50:19;99873.38;;;24.19;54.09
68941;BME280;55982;51.476;7.552;2023-06-14T11:52:52;99866.72;;;24.53;55.46
68941;BME280;55982;51.476;7.552;2023-06-14T11:55:17;99878.28;;;26.24;54.97
68941;BME280;55982;51.476;7.552;2023-06-14T11:57:42;99867.50;;;25.97;52.90
68941;BME280;55982;51.476;7.552;2023-06-14T12:00:08;99863.25;;;25.58;52.55
68941;BME280;55982;51.476;7.552;2023-06-14T12:02:38;99858.34;;;24.96;54.76
68941;BME280;55982;51.476;7.552;2023-06-14T12:05:05;99847.75;;;25.32;53.33
68941;BME280;55982;51.476;7.552;2023-06-14T12:07:33;99861.44;;;25.49;53.96
68941;BME280;55982;51.476;7.552;2023-06-14T12:12:24;99871.88;;;26.35;52.93
68941;BME280;55982;51.476;7.552;2023-06-14T12:14:55;99852.34;;;25.69;52.53
68941;BME280;55982;51.476;7.552;2023-06-14T12:17:21;99862.88;;;25.14;52.50
68941;BME280;55982;51.476;7.552;2023-06-14T12:19:48;99865.25;;;24.79;53.46
68941;BME280;55982;51.476;7.552;2023-06-14T12:22:16;99856.94;;;25.20;52.82
68941;BME280;55982;51.476;7.552;2023-06-14T12:24:45;99862.38;;;26.13;52.37
68941;BME280;55982;51.476;7.552;2023-06-14T12:27:10;99880.16;;;26.14;52.58
68941;BME280;55982;51.476;7.552;2023-06-14T12:29:41;99866.44;;;25.71;52.32
68941;BME280;55982;51.476;7.552;2023-06-14T12:32:09;99862.38;;;25.67;53.33
68941;BME280;55982;51.476;7.552;2023-06-14T12:34:34;99859.06;;;25.82;51.57
68941;BME280;55982;51.476;7.552;2023-06-14T12:37:00;99852.13;;;25.33;51.10
68941;BME280;55982;51.476;7.552;2023-06-14T12:39:26;99852.44;;;26.23;51.82
68941;BME280;55982;51.476;7.552;2023-06-14T12:41:51;99869.19;;;25.13;52.68
68941;BME280;55982;51.476;7.552;2023-06-14T12:44:16;99870.19;;;25.12;52.30
68941;BME280;55982;51.476;7.552;2023-06-14T12:46:42;99867.75;;;25.28;52.27
68941;BME280;55982;51.476;7.552;2023-06-14T12:49:09;99865.41;;;24.87;52.39
68941;BME280;55982;51.476;7.552;2023-06-14T12:51:36;99862.16;;;25.41;49.97
68941;BME280;55982;51.476;7.552;2023-06-14T12:54:01;99862.41;;;25.48;52.71
68941;BME280;55982;51.476;7.552;2023-06-14T12:56:27;99871.69;;;26.63;49.38
68941;BME280;55982;51.476;7.552;2023-06-14T12:58:52;99863.88;;;25.79;52.56
68941;BME280;55982;51.476;7.552;2023-06-14T13:01:18;99854.13;;;25.41;50.71
68941;BME280;55982;51.476;7.552;2023-06-14T13:03:43;99850.44;;;25.23;52.09
68941;BME280;55982;51.476;7.552;2023-06-14T13:06:09;99865.91;;;25.58;53.19
68941;BME280;55982;51.476;7.552;2023-06-14T13:08:34;99863.25;;;25.58;51.51
68941;BME280;55982;51.476;7.552;2023-06-14T13:10:59;99869.53;;;26.49;51.39
68941;BME280;55982;51.476;7.552;2023-06-14T13:13:25;99854.63;;;26.64;50.79
68941;BME280;55982;51.476;7.552;2023-06-14T13:15:50;99871.16;;;26.60;50.50
68941;BME280;55982;51.476;7.552;2023-06-14T13:18:16;99852.69;;;25.93;48.34
68941;BME280;55982;51.476;7.552;2023-06-14T13:20:42;99863.53;;;26.01;49.28